createdAt,value
2019-04-11T00:01:48.139Z,3.40
2019-04-11T00:04:15.716Z,3.72
2019-04-11T00:06:44.225Z,5.05
2019-04-11T00:09:14.531Z,4.50
2019-04-11T00:11:44.109Z,4.58
2019-04-11T00:14:13.858Z,3.47
2019-04-11T00:16:43.474Z,4.45
2019-04-11T00:19:12.271Z,4.33
2019-04-11T00:21:41.350Z,4.00
2019-04-11T00:24:10.407Z,4.20
2019-04-11T00:26:40.253Z,4.25
2019-04-11T00:29:08.768Z,3.87
2019-04-11T00:31:37.181Z,3.90
2019-04-11T00:34:06.844Z,3.55
2019-04-11T00:36:35.336Z,3.67
2019-04-11T00:39:05.778Z,4.25
2019-04-11T00:41:34.379Z,3.42
2019-04-11T00:44:03.808Z,3.90
2019-04-11T00:46:32.242Z,4.65
2019-04-11T00:49:01.888Z,3.85
2019-04-11T00:51:30.432Z,3.95
2019-04-11T00:53:58.853Z,3.35
2019-04-11T00:56:28.349Z,3.50
2019-04-11T00:58:58.196Z,5.90
2019-04-11T01:01:28.023Z,4.67
2019-04-11T01:03:56.617Z,4.95
2019-04-11T01:06:25.872Z,5.83
2019-04-11T01:08:54.346Z,3.98
2019-04-11T01:11:23.788Z,3.35
2019-04-11T01:13:55.294Z,4.80
2019-04-11T01:16:26.873Z,4.25
2019-04-11T01:18:55.292Z,3.47
2019-04-11T01:21:24.288Z,4.10
2019-04-11T01:23:53.422Z,4.22
2019-04-11T01:26:21.929Z,4.08
2019-04-11T01:28:51.987Z,4.15
2019-04-11T01:31:25.284Z,4.40
2019-04-11T01:33:53.934Z,3.90
2019-04-11T01:36:22.722Z,4.58
2019-04-11T01:38:56.819Z,4.78
2019-04-11T01:41:25.309Z,3.67
2019-04-11T01:44:00.968Z,3.90
2019-04-11T01:46:24.391Z,3.40
2019-04-11T01:48:55.517Z,3.85
2019-04-11T01:51:25.362Z,4.42
2019-04-11T01:53:53.870Z,4.70
2019-04-11T01:56:23.189Z,4.50
2019-04-11T01:58:51.679Z,4.05
2019-04-11T02:01:30.624Z,3.30
2019-04-11T02:04:16.046Z,3.80
2019-04-11T02:06:45.784Z,3.72
2019-04-11T02:09:15.858Z,2.93
2019-04-11T02:11:44.335Z,4.60
2019-04-11T02:14:16.474Z,3.17
2019-04-11T02:16:43.346Z,4.03
2019-04-11T02:19:12.136Z,4.10
2019-04-11T02:21:42.037Z,3.20
2019-04-11T02:24:15.311Z,3.42
2019-04-11T02:26:46.802Z,3.92
2019-04-11T02:29:15.478Z,3.37
2019-04-11T02:31:44.556Z,4.30
2019-04-11T02:34:14.041Z,3.42
2019-04-11T02:36:44.965Z,3.50
2019-04-11T02:39:17.630Z,3.72
2019-04-11T02:41:44.530Z,4.03
2019-04-11T02:44:33.728Z,4.65
2019-04-11T02:46:55.847Z,4.25
2019-04-11T02:49:14.983Z,5.17
2019-04-11T02:51:45.020Z,4.67
2019-04-11T02:54:15.740Z,4.15
2019-04-11T02:56:45.568Z,4.87
2019-04-11T02:59:15.444Z,3.77
2019-04-11T03:01:44.081Z,3.75
2019-04-11T03:04:12.973Z,4.20
2019-04-11T03:06:41.802Z,4.28
2019-04-11T03:09:10.963Z,3.92
2019-04-11T03:11:40.875Z,3.70
2019-04-11T03:14:10.372Z,4.73
2019-04-11T03:16:53.034Z,4.40
2019-04-11T03:19:25.087Z,4.67
2019-04-11T03:21:43.622Z,4.20
2019-04-11T03:24:11.260Z,4.07
2019-04-11T03:26:41.318Z,3.92
2019-04-11T03:29:11.187Z,4.80
2019-04-11T03:39:32.655Z,4.47
2019-04-11T03:41:59.632Z,3.17
2019-04-11T03:44:22.993Z,3.20
2019-04-11T03:47:01.274Z,4.37
2019-04-11T03:49:24.980Z,4.17
2019-04-11T03:51:45.998Z,4.92
2019-04-11T03:54:15.701Z,3.65
2019-04-11T03:56:45.750Z,5.10
2019-04-11T03:59:16.616Z,3.50
2019-04-11T04:01:46.581Z,3.95
2019-04-11T04:04:17.217Z,3.70
2019-04-11T04:06:46.254Z,4.77
2019-04-11T04:09:17.102Z,4.30
2019-04-11T04:11:49.342Z,3.60
2019-04-11T04:14:37.201Z,3.60
2019-04-11T04:17:17.522Z,3.80
2019-04-11T04:19:59.406Z,3.70
2019-04-11T04:22:32.925Z,5.17
2019-04-11T04:25:03.769Z,3.67
2019-04-11T04:27:32.687Z,4.73
2019-04-11T04:30:04.631Z,4.17
2019-04-11T04:32:32.939Z,4.13
2019-04-11T04:35:01.853Z,3.93
2019-04-11T04:37:34.073Z,3.87
2019-04-11T04:40:24.019Z,4.07
2019-04-11T04:42:40.251Z,3.80
2019-04-11T04:45:07.414Z,4.20
2019-04-11T04:47:42.803Z,3.22
2019-04-11T04:50:08.810Z,3.37
2019-04-11T04:52:38.222Z,3.63
2019-04-11T04:55:08.585Z,4.30
2019-04-11T04:57:37.623Z,4.33
2019-04-11T05:00:09.253Z,4.23
2019-04-11T05:02:39.650Z,4.47
2019-04-11T05:05:09.467Z,4.13
2019-04-11T05:07:40.842Z,4.50
2019-04-11T05:10:11.250Z,3.60
2019-04-11T05:12:39.763Z,4.23
2019-04-11T05:15:10.041Z,4.37
2019-04-11T05:17:38.749Z,3.70
2019-04-11T05:20:09.190Z,4.53
2019-04-11T05:22:37.665Z,4.27
2019-04-11T05:25:06.743Z,3.93
2019-04-11T05:27:35.732Z,5.07
2019-04-11T05:30:05.097Z,4.40
2019-04-11T05:32:33.587Z,4.63
2019-04-11T05:35:02.856Z,5.17
2019-04-11T05:37:31.400Z,4.30
2019-04-11T05:40:00.806Z,3.50
2019-04-11T05:42:29.403Z,3.30
2019-04-11T05:44:59.038Z,4.23
2019-04-11T05:47:27.677Z,4.67
2019-04-11T05:49:58.901Z,4.53
2019-04-11T05:52:30.522Z,4.20
2019-04-11T05:54:59.185Z,3.67
2019-04-11T05:57:34.011Z,4.15
2019-04-11T05:59:59.225Z,4.43
2019-04-11T06:02:33.106Z,3.37
2019-04-11T06:05:03.573Z,3.50
2019-04-11T06:07:48.830Z,5.53
2019-04-11T06:10:30.314Z,4.20
2019-04-11T06:13:04.567Z,3.65
2019-04-11T06:15:51.284Z,4.00
2019-04-11T06:18:29.332Z,4.85
2019-04-11T06:20:53.672Z,3.65
2019-04-11T06:23:23.923Z,3.67
2019-04-11T06:26:06.804Z,4.65
2019-04-11T06:28:36.198Z,4.20
2019-04-11T06:31:18.241Z,3.40
2019-04-11T06:33:49.071Z,3.42
2019-04-11T06:36:31.984Z,3.47
2019-04-11T06:39:05.299Z,3.52
2019-04-11T06:41:51.654Z,4.12
2019-04-11T06:44:37.916Z,4.03
2019-04-11T06:47:08.297Z,3.42
2019-04-11T06:49:41.262Z,4.60
2019-04-11T06:52:11.314Z,4.22
2019-04-11T06:54:41.493Z,3.83
2019-04-11T06:57:11.830Z,3.70
2019-04-11T06:59:42.953Z,4.90
2019-04-11T07:02:18.058Z,3.67
2019-04-11T07:04:47.559Z,3.25
2019-04-11T07:07:16.422Z,2.83
2019-04-11T07:09:49.595Z,5.47
2019-04-11T07:12:22.606Z,4.10
2019-04-11T07:14:58.434Z,4.17
2019-04-11T07:17:44.431Z,3.62
2019-04-11T07:20:31.413Z,3.08
2019-04-11T07:23:18.050Z,5.37
2019-04-11T07:25:53.999Z,4.45
2019-04-11T07:28:27.340Z,3.92
2019-04-11T07:31:10.556Z,3.60
2019-04-11T07:33:56.533Z,3.77
2019-04-11T07:36:43.985Z,4.25
2019-04-11T07:39:14.650Z,3.83
2019-04-11T07:41:45.556Z,3.80
2019-04-11T07:44:19.622Z,3.77
2019-04-11T07:46:53.619Z,6.17
2019-04-11T07:49:32.873Z,4.58
2019-04-11T07:52:03.077Z,3.42
2019-04-11T07:54:31.514Z,4.58
2019-04-11T07:57:04.851Z,4.20
2019-04-11T07:59:37.675Z,4.05
2019-04-11T08:02:24.369Z,4.37
2019-04-11T08:05:11.086Z,4.22
2019-04-11T08:07:44.821Z,3.95
2019-04-11T08:10:33.285Z,3.22
2019-04-11T08:13:10.180Z,4.03
2019-04-11T08:15:43.945Z,3.75
2019-04-11T08:18:20.803Z,3.72
2019-04-11T08:20:50.934Z,4.55
2019-04-11T08:23:21.370Z,3.90
2019-04-11T08:26:07.810Z,3.37
2019-04-11T08:28:37.280Z,3.92
2019-04-11T08:31:24.374Z,4.65
2019-04-11T08:33:55.119Z,4.45
2019-04-11T08:36:42.074Z,4.80
2019-04-11T08:39:13.001Z,4.80
2019-04-11T08:42:03.217Z,3.65
2019-04-11T08:44:32.119Z,3.90
2019-04-11T08:47:02.557Z,3.95
2019-04-11T08:49:33.846Z,3.33
2019-04-11T08:52:05.521Z,4.03
2019-04-11T08:54:44.275Z,4.20
2019-04-11T08:57:13.745Z,3.98
2019-04-11T09:00:00.282Z,3.65
2019-04-11T09:02:31.063Z,3.40
2019-04-11T09:05:06.925Z,3.37
2019-04-11T09:07:33.778Z,4.00
2019-04-11T09:10:20.154Z,4.65
2019-04-11T09:13:07.035Z,3.22
2019-04-11T09:15:53.949Z,3.75
2019-04-11T09:18:22.316Z,4.15
2019-04-11T09:21:02.264Z,4.12
2019-04-11T09:23:30.739Z,3.85
2019-04-11T09:26:01.568Z,3.65
2019-04-11T09:28:31.924Z,5.45
2019-04-11T09:31:03.313Z,3.83
2019-04-11T09:33:51.407Z,3.62
2019-04-11T09:36:36.936Z,3.22
2019-04-11T09:39:24.748Z,4.17
2019-04-11T09:42:13.449Z,3.80
2019-04-11T09:44:49.472Z,4.25
2019-04-11T09:47:26.285Z,4.78
2019-04-11T09:50:11.873Z,3.27
2019-04-11T09:52:54.556Z,3.77
2019-04-11T09:55:29.093Z,3.65
2019-04-11T09:58:00.136Z,3.40
2019-04-11T10:00:43.090Z,3.27
2019-04-11T10:03:13.318Z,6.22
2019-04-11T10:05:46.764Z,3.50
2019-04-11T10:08:37.196Z,3.65
2019-04-11T10:11:10.337Z,3.52
2019-04-11T10:13:43.199Z,3.20
2019-04-11T10:16:22.225Z,3.70
2019-04-11T10:18:55.674Z,3.20
2019-04-11T10:21:26.019Z,3.67
2019-04-11T10:23:56.790Z,3.33
2019-04-11T10:26:27.798Z,3.58
2019-04-11T10:29:09.949Z,4.35
2019-04-11T10:31:46.460Z,4.65
2019-04-11T10:34:17.540Z,3.60
2019-04-11T10:36:47.641Z,2.85
2019-04-11T10:39:23.508Z,4.40
2019-04-11T10:41:53.847Z,4.45
2019-04-11T10:44:23.918Z,3.10
2019-04-11T10:46:53.966Z,4.30
2019-04-11T10:49:40.095Z,3.17
2019-04-11T10:52:18.982Z,4.42
2019-04-11T10:54:49.204Z,3.83
2019-04-11T10:57:34.566Z,3.50
2019-04-11T11:00:05.160Z,3.42
2019-04-11T11:02:51.670Z,3.50
2019-04-11T11:05:22.179Z,3.20
2019-04-11T11:07:52.826Z,4.50
2019-04-11T11:10:23.702Z,4.03
2019-04-11T11:12:53.853Z,3.08
2019-04-11T11:15:27.493Z,4.15
2019-04-11T11:18:35.095Z,3.30
2019-04-11T11:20:48.363Z,3.70
2019-04-11T11:23:29.260Z,3.58
2019-04-11T11:26:14.549Z,3.00
2019-04-11T11:28:56.960Z,3.35
2019-04-11T11:31:42.796Z,3.10
2019-04-11T11:34:17.332Z,4.75
2019-04-11T11:36:54.924Z,3.22
2019-04-11T11:39:28.038Z,3.10
2019-04-11T11:42:14.460Z,3.72
2019-04-11T11:44:53.513Z,3.60
2019-04-11T11:47:41.681Z,3.67
2019-04-11T11:50:23.677Z,3.40
2019-04-11T11:52:53.518Z,3.45
2019-04-11T11:55:29.441Z,3.02
2019-04-11T11:58:06.869Z,2.70
2019-04-11T12:00:36.703Z,4.08
2019-04-11T12:03:28.376Z,3.08
2019-04-11T12:05:57.098Z,2.92
2019-04-11T12:08:47.476Z,3.17
2019-04-11T12:11:15.671Z,3.00
2019-04-11T12:14:02.062Z,3.98
2019-04-11T12:16:39.631Z,2.77
2019-04-11T12:19:18.008Z,3.22
2019-04-11T12:21:48.934Z,4.03
2019-04-11T12:24:20.869Z,3.47
2019-04-11T12:27:10.219Z,3.15
2019-04-11T12:29:55.051Z,2.70
2019-04-11T12:32:25.297Z,3.05
2019-04-11T12:35:04.372Z,3.60
2019-04-11T12:37:35.788Z,3.75
2019-04-11T12:40:23.824Z,2.80
2019-04-11T12:42:52.266Z,4.22
2019-04-11T12:45:28.487Z,4.10
2019-04-11T12:47:57.084Z,2.45
2019-04-11T12:50:43.635Z,3.40
2019-04-11T12:53:12.189Z,3.47
2019-04-11T12:55:47.934Z,3.45
2019-04-11T12:58:20.998Z,3.30
2019-04-11T13:00:51.043Z,3.27
2019-04-11T13:03:24.248Z,3.42
2019-04-11T13:06:09.565Z,3.72
2019-04-11T13:08:42.165Z,4.22
2019-04-11T13:11:12.324Z,3.12
2019-04-11T13:13:51.635Z,3.27
2019-04-11T13:16:20.122Z,2.85
2019-04-11T13:18:50.213Z,3.75
2019-04-11T13:21:26.534Z,3.33
2019-04-11T13:23:56.653Z,2.55
2019-04-11T13:26:43.165Z,2.90
2019-04-11T13:29:22.141Z,2.85
2019-04-11T13:31:55.173Z,2.58
2019-04-11T13:34:25.243Z,3.85
2019-04-11T13:37:10.335Z,2.92
2019-04-11T13:39:38.783Z,3.58
2019-04-11T13:42:23.831Z,3.42
2019-04-11T13:44:52.280Z,2.58
2019-04-11T13:47:22.394Z,2.52
2019-04-11T13:49:52.475Z,3.05
2019-04-11T13:52:41.218Z,2.72
2019-04-11T13:55:11.577Z,3.33
2019-04-11T13:57:57.828Z,3.83
2019-04-11T14:00:46.614Z,3.72
2019-04-11T14:03:19.694Z,3.02
2019-04-11T14:05:49.854Z,2.87
2019-04-11T14:08:19.892Z,2.33
2019-04-11T14:10:49.972Z,3.33
2019-04-11T14:13:18.670Z,3.20
2019-04-11T14:15:48.836Z,3.12
2019-04-11T14:18:27.823Z,4.78
2019-04-11T14:21:03.762Z,3.80
2019-04-11T14:23:45.816Z,4.50
2019-04-11T14:26:16.244Z,3.80
2019-04-11T14:28:46.299Z,3.10
2019-04-11T14:31:16.387Z,3.67
2019-04-11T14:33:55.539Z,3.72
2019-04-11T14:36:33.552Z,4.28
2019-04-11T14:39:01.986Z,3.22
2019-04-11T14:41:34.488Z,2.55
2019-04-11T14:44:04.752Z,3.58
2019-04-11T14:46:37.694Z,3.17
2019-04-11T14:49:10.164Z,3.30
2019-04-11T14:51:41.370Z,3.00
2019-04-11T14:54:17.045Z,2.85
2019-04-11T14:56:58.277Z,3.58
2019-04-11T14:59:46.666Z,2.35
2019-04-11T15:02:16.740Z,3.42
2019-04-11T15:04:46.817Z,2.83
2019-04-11T15:07:17.017Z,2.60
2019-04-11T15:09:59.173Z,3.08
2019-04-11T15:12:31.891Z,2.85
2019-04-11T15:15:07.774Z,3.90
2019-04-11T15:17:37.836Z,2.30
2019-04-11T15:20:14.290Z,3.25
2019-04-11T15:22:59.763Z,3.05
2019-04-11T15:25:29.858Z,2.20
2019-04-11T15:27:59.906Z,2.95
2019-04-11T15:30:49.429Z,2.50
2019-04-11T15:33:34.040Z,2.72
2019-04-11T15:36:04.128Z,2.02
2019-04-11T15:38:43.395Z,2.62
2019-04-11T15:41:12.561Z,3.65
2019-04-11T15:43:59.177Z,3.55
2019-04-11T15:46:29.363Z,2.42
2019-04-11T15:49:05.686Z,2.60
2019-04-11T15:51:38.651Z,3.15
2019-04-11T15:54:14.336Z,2.70
2019-04-11T15:56:56.727Z,2.95
2019-04-11T15:59:38.907Z,2.33
2019-04-11T16:02:26.879Z,3.98
2019-04-11T16:05:02.042Z,5.35
2019-04-11T16:07:38.268Z,5.08
2019-04-11T16:10:11.693Z,3.62
2019-04-11T16:12:46.624Z,4.05
2019-04-11T16:15:18.765Z,4.45
2019-04-11T16:17:51.832Z,3.65
2019-04-11T16:20:20.556Z,4.70
2019-04-11T16:23:02.945Z,4.58
2019-04-11T16:25:31.358Z,7.03
2019-04-11T16:28:17.585Z,7.10
2019-04-11T16:30:47.649Z,8.03
2019-04-11T16:33:20.685Z,7.03
2019-04-11T16:35:56.954Z,9.15
2019-04-11T16:38:25.223Z,7.78
2019-04-11T16:41:11.745Z,6.83
2019-04-11T16:43:41.813Z,5.83
2019-04-11T16:46:28.359Z,10.78
2019-04-11T16:48:56.777Z,12.90
2019-04-11T16:51:30.764Z,8.50
2019-04-11T16:53:55.354Z,6.17
2019-04-11T16:56:23.963Z,7.10
2019-04-11T16:58:52.371Z,6.53
2019-04-11T17:01:23.078Z,6.08
2019-04-11T17:03:54.830Z,7.85
2019-04-11T17:06:25.938Z,5.47
2019-04-11T17:08:57.004Z,6.58
2019-04-11T17:11:27.036Z,6.12
2019-04-11T17:13:57.357Z,7.70
2019-04-11T17:16:29.967Z,6.20
2019-04-11T17:18:56.135Z,5.90
2019-04-11T17:21:24.567Z,6.17
2019-04-11T17:23:53.031Z,5.12
2019-04-11T17:26:23.165Z,5.75
2019-04-11T17:28:53.645Z,7.78
2019-04-11T17:31:25.744Z,5.62
2019-04-11T17:33:51.962Z,5.15
2019-04-11T17:36:20.405Z,7.60
2019-04-11T17:38:48.898Z,5.05
2019-04-11T17:41:17.324Z,4.72
2019-04-11T17:43:47.320Z,4.87
2019-04-11T17:46:15.989Z,4.87
2019-04-11T17:48:44.398Z,5.65
2019-04-11T17:51:12.866Z,6.47
2019-04-11T17:53:41.251Z,4.08
2019-04-11T17:56:09.787Z,4.55
2019-04-11T17:58:38.245Z,5.12
2019-04-11T18:01:07.200Z,4.85
2019-04-11T18:03:35.678Z,5.20
2019-04-11T18:06:04.303Z,4.42
2019-04-11T18:08:32.754Z,4.80
2019-04-11T18:11:01.238Z,6.50
2019-04-11T18:13:31.538Z,5.10
2019-04-11T18:16:01.164Z,6.72
2019-04-11T18:18:29.971Z,5.95
2019-04-11T18:20:58.387Z,4.95
2019-04-11T18:23:26.843Z,4.72
2019-04-11T18:25:55.281Z,5.33
2019-04-11T18:28:23.769Z,4.15
2019-04-11T18:30:54.012Z,4.85
2019-04-11T18:33:22.386Z,4.97
2019-04-11T18:35:50.810Z,4.78
2019-04-11T18:38:19.277Z,5.45
2019-04-11T18:40:47.721Z,4.80
2019-04-11T18:43:16.905Z,5.25
2019-04-11T18:45:45.458Z,5.50
2019-04-11T18:48:13.852Z,6.22
2019-04-11T18:50:42.280Z,5.80
2019-04-11T18:53:10.741Z,5.85
2019-04-11T18:55:39.146Z,6.35
2019-04-11T18:58:07.588Z,4.85
2019-04-11T19:00:38.323Z,6.97
2019-04-11T19:03:08.023Z,5.50
2019-04-11T19:05:37.271Z,3.85
2019-04-11T19:08:05.782Z,5.80
2019-04-11T19:10:34.226Z,5.62
2019-04-11T19:13:02.721Z,6.00
2019-04-11T19:15:31.271Z,4.55
2019-04-11T19:18:06.225Z,5.45
2019-04-11T19:20:29.956Z,4.55
2019-04-11T19:22:58.392Z,5.40
2019-04-11T19:25:26.852Z,4.53
2019-04-11T19:27:57.219Z,7.40
2019-04-11T19:30:26.396Z,4.50
2019-04-11T19:32:55.521Z,6.15
2019-04-11T19:35:24.125Z,6.90
2019-04-11T19:37:52.591Z,4.90
2019-04-11T19:40:21.159Z,4.55
2019-04-11T19:42:49.849Z,6.03
2019-04-11T19:45:19.525Z,6.17
2019-04-11T19:47:51.698Z,7.85
2019-04-11T19:50:18.780Z,17.42
2019-04-11T19:52:47.231Z,6.22
2019-04-11T19:55:34.696Z,9.35
2019-04-11T19:58:03.734Z,5.50
2019-04-11T20:00:32.185Z,6.30
2019-04-11T20:03:00.614Z,4.45
2019-04-11T20:05:29.041Z,7.47
2019-04-11T20:07:57.503Z,7.10
2019-04-11T20:10:25.983Z,9.28
2019-04-11T20:12:54.436Z,6.05
2019-04-11T20:15:22.939Z,6.35
2019-04-11T20:17:52.213Z,10.48
2019-04-11T20:20:20.644Z,5.37
2019-04-11T20:22:58.725Z,4.58
2019-04-11T20:25:19.238Z,7.42
2019-04-11T20:27:48.094Z,7.70
2019-04-11T20:30:17.896Z,5.80
2019-04-11T20:32:46.300Z,4.37
2019-04-11T20:35:14.738Z,5.00
2019-04-11T20:37:44.728Z,5.00
2019-04-11T20:40:17.354Z,6.05
2019-04-11T20:42:43.833Z,6.50
2019-04-11T20:45:12.536Z,3.40
2019-04-11T20:47:40.946Z,5.20
2019-04-11T20:50:10.392Z,6.92
2019-04-11T20:52:38.840Z,4.50
2019-04-11T20:55:09.189Z,4.70
2019-04-11T20:57:40.432Z,4.55
2019-04-11T21:00:12.054Z,8.68
2019-04-11T21:02:39.464Z,5.70
2019-04-11T21:05:08.136Z,4.55
2019-04-11T21:07:39.062Z,4.95
2019-04-11T21:10:07.147Z,4.03
2019-04-11T21:12:37.305Z,4.40
2019-04-11T21:15:07.591Z,9.48
2019-04-11T21:17:36.013Z,3.45
2019-04-11T21:20:07.425Z,3.72
2019-04-11T21:22:35.844Z,6.83
2019-04-11T21:25:05.328Z,16.37
2019-04-11T21:27:33.754Z,28.30
2019-04-11T21:30:02.309Z,11.83
2019-04-11T21:32:31.856Z,21.17
2019-04-11T21:35:02.401Z,7.50
2019-04-11T21:37:31.207Z,20.23
2019-04-11T21:39:59.659Z,10.18
2019-04-11T21:42:28.113Z,8.13
2019-04-11T21:44:56.538Z,11.00
2019-04-11T21:47:24.971Z,9.28
2019-04-11T21:49:53.421Z,11.12
2019-04-11T21:52:21.859Z,6.40
2019-04-11T21:54:50.287Z,7.67
2019-04-11T21:57:19.270Z,5.78
2019-04-11T21:59:51.300Z,6.10
2019-04-11T22:02:18.560Z,7.65
2019-04-11T22:04:46.993Z,9.53
2019-04-11T22:07:15.425Z,12.07
2019-04-11T22:09:43.853Z,8.80
2019-04-11T22:12:12.276Z,8.85
2019-04-11T22:14:41.964Z,8.90
2019-04-11T22:17:15.164Z,8.65
2019-04-11T22:19:45.339Z,8.40
2019-04-11T22:22:11.357Z,9.10
2019-04-11T22:24:39.805Z,11.88
2019-04-11T22:27:08.242Z,10.28
2019-04-11T22:29:36.676Z,6.50
2019-04-11T22:32:05.147Z,6.33
2019-04-11T22:34:35.226Z,19.67
2019-04-11T22:37:03.935Z,10.72
2019-04-11T22:39:32.332Z,4.92
2019-04-11T22:42:00.765Z,12.20
2019-04-11T22:44:29.203Z,4.53
2019-04-11T22:46:57.607Z,6.47
2019-04-11T22:49:26.055Z,7.62
2019-04-11T22:51:54.467Z,5.58
2019-04-11T22:54:22.906Z,5.50
2019-04-11T22:56:51.315Z,9.03
2019-04-11T22:59:19.752Z,3.75
2019-04-11T23:01:48.868Z,6.97
2019-04-11T23:04:17.649Z,4.35
2019-04-11T23:06:47.276Z,4.33
2019-04-11T23:09:16.653Z,6.97
2019-04-11T23:11:46.355Z,7.37
2019-04-11T23:14:15.962Z,5.85
2019-04-11T23:16:45.105Z,4.75
2019-04-11T23:19:14.423Z,6.80
2019-04-11T23:21:42.835Z,7.83
2019-04-11T23:24:12.148Z,5.95
2019-04-11T23:26:40.795Z,5.10
2019-04-11T23:29:09.232Z,5.20
2019-04-11T23:31:37.721Z,4.65
2019-04-11T23:34:06.218Z,4.17
2019-04-11T23:36:34.637Z,6.12
2019-04-11T23:39:04.731Z,4.37
2019-04-11T23:41:33.147Z,3.15
2019-04-11T23:44:01.605Z,4.53
2019-04-11T23:46:30.025Z,4.72
2019-04-11T23:48:58.441Z,4.12
2019-04-11T23:51:26.895Z,5.37
2019-04-11T23:53:59.027Z,3.33
2019-04-11T23:56:25.443Z,5.28
2019-04-11T23:58:53.877Z,5.95
